sensor_id;sensor_type;location;lat;lon;timestamp;P1;durP1;ratioP1;P2;durP2;ratioP2
27199;SDS011;14714;48.106;11.546;2023-01-26T00:01:13;30.15;;;13.45;;
27199;SDS011;14714;48.106;11.546;2023-01-26T00:03:43;27.00;;;12.65;;
27199;SDS011;14714;48.106;11.546;2023-01-26T00:06:11;26.63;;;12.75;;
27199;SDS011;14714;48.106;11.546;2023-01-26T00:08:40;26.35;;;12.48;;
27199;SDS011;14714;48.106;11.546;2023-01-26T00:11:10;28.50;;;12.88;;
27199;SDS011;14714;48.106;11.546;2023-01-26T00:13:38;28.85;;;13.20;;
27199;SDS011;14714;48.106;11.546;2023-01-26T00:16:10;22.25;;;11.63;;
27199;SDS011;14714;48.106;11.546;2023-01-26T00:18:39;23.23;;;11.57;;
27199;SDS011;14714;48.106;11.546;2023-01-26T00:21:06;24.85;;;11.60;;
27199;SDS011;14714;48.106;11.546;2023-01-26T00:23:36;27.20;;;12.75;;
27199;SDS011;14714;48.106;11.546;2023-01-26T00:26:06;25.70;;;12.82;;
27199;SDS011;14714;48.106;11.546;2023-01-26T00:28:39;24.67;;;12.38;;
27199;SDS011;14714;48.106;11.546;2023-01-26T00:31:12;23.17;;;11.73;;
27199;SDS011;14714;48.106;11.546;2023-01-26T00:33:40;28.77;;;11.93;;
27199;SDS011;14714;48.106;11.546;2023-01-26T00:36:07;25.02;;;11.98;;
27199;SDS011;14714;48.106;11.546;2023-01-26T00:38:34;24.90;;;11.27;;
27199;SDS011;14714;48.106;11.546;2023-01-26T00:41:02;24.55;;;11.70;;
27199;SDS011;14714;48.106;11.546;2023-01-26T00:43:29;23.80;;;11.88;;
27199;SDS011;14714;48.106;11.546;2023-01-26T00:45:55;23.77;;;11.40;;
27199;SDS011;14714;48.106;11.546;2023-01-26T00:48:22;25.63;;;12.00;;
27199;SDS011;14714;48.106;11.546;2023-01-26T00:50:50;25.08;;;11.55;;
27199;SDS011;14714;48.106;11.546;2023-01-26T00:53:18;24.30;;;12.18;;
27199;SDS011;14714;48.106;11.546;2023-01-26T00:55:45;24.35;;;11.93;;
27199;SDS011;14714;48.106;11.546;2023-01-26T00:58:11;27.65;;;12.77;;
27199;SDS011;14714;48.106;11.546;2023-01-26T01:00:38;29.33;;;14.00;;
27199;SDS011;14714;48.106;11.546;2023-01-26T01:03:05;27.80;;;12.77;;
27199;SDS011;14714;48.106;11.546;2023-01-26T01:08:00;24.88;;;12.57;;
27199;SDS011;14714;48.106;11.546;2023-01-26T01:10:27;24.33;;;11.95;;
27199;SDS011;14714;48.106;11.546;2023-01-26T01:12:54;27.23;;;12.68;;
27199;SDS011;14714;48.106;11.546;2023-01-26T01:15:22;27.80;;;13.20;;
27199;SDS011;14714;48.106;11.546;2023-01-26T01:17:49;24.70;;;12.40;;
27199;SDS011;14714;48.106;11.546;2023-01-26T01:20:17;29.40;;;14.02;;
27199;SDS011;14714;48.106;11.546;2023-01-26T01:22:44;27.42;;;13.27;;
27199;SDS011;14714;48.106;11.546;2023-01-26T01:25:10;26.08;;;12.68;;
27199;SDS011;14714;48.106;11.546;2023-01-26T01:27:38;28.52;;;13.05;;
27199;SDS011;14714;48.106;11.546;2023-01-26T01:30:05;25.50;;;12.50;;
27199;SDS011;14714;48.106;11.546;2023-01-26T01:32:36;23.60;;;11.50;;
27199;SDS011;14714;48.106;11.546;2023-01-26T01:35:05;24.38;;;12.07;;
27199;SDS011;14714;48.106;11.546;2023-01-26T01:37:33;24.80;;;11.77;;
27199;SDS011;14714;48.106;11.546;2023-01-26T01:39:59;25.67;;;11.95;;
27199;SDS011;14714;48.106;11.546;2023-01-26T01:42:26;24.50;;;12.35;;
27199;SDS011;14714;48.106;11.546;2023-01-26T01:47:58;23.33;;;11.80;;
27199;SDS011;14714;48.106;11.546;2023-01-26T01:50:28;25.00;;;11.32;;
27199;SDS011;14714;48.106;11.546;2023-01-26T01:52:58;24.35;;;11.63;;
27199;SDS011;14714;48.106;11.546;2023-01-26T01:55:25;23.48;;;11.93;;
27199;SDS011;14714;48.106;11.546;2023-01-26T01:57:52;27.42;;;12.38;;
27199;SDS011;14714;48.106;11.546;2023-01-26T02:00:22;29.80;;;13.23;;
27199;SDS011;14714;48.106;11.546;2023-01-26T02:02:54;25.40;;;12.57;;
27199;SDS011;14714;48.106;11.546;2023-01-26T02:05:52;25.98;;;13.23;;
27199;SDS011;14714;48.106;11.546;2023-01-26T02:08:32;26.73;;;13.25;;
27199;SDS011;14714;48.106;11.546;2023-01-26T02:11:02;27.20;;;11.93;;
27199;SDS011;14714;48.106;11.546;2023-01-26T02:13:32;25.85;;;12.27;;
27199;SDS011;14714;48.106;11.546;2023-01-26T02:16:00;24.77;;;11.95;;
27199;SDS011;14714;48.106;11.546;2023-01-26T02:18:26;25.05;;;12.30;;
27199;SDS011;14714;48.106;11.546;2023-01-26T02:21:04;29.98;;;12.73;;
27199;SDS011;14714;48.106;11.546;2023-01-26T02:24:09;27.35;;;13.40;;
27199;SDS011;14714;48.106;11.546;2023-01-26T02:26:32;30.10;;;12.90;;
27199;SDS011;14714;48.106;11.546;2023-01-26T02:29:00;28.42;;;12.85;;
27199;SDS011;14714;48.106;11.546;2023-01-26T02:31:29;26.23;;;13.18;;
27199;SDS011;14714;48.106;11.546;2023-01-26T02:33:56;29.67;;;13.52;;
27199;SDS011;14714;48.106;11.546;2023-01-26T02:36:28;26.90;;;12.43;;
27199;SDS011;14714;48.106;11.546;2023-01-26T02:41:41;28.38;;;13.10;;
27199;SDS011;14714;48.106;11.546;2023-01-26T02:44:28;26.58;;;13.38;;
27199;SDS011;14714;48.106;11.546;2023-01-26T02:46:55;23.40;;;11.50;;
27199;SDS011;14714;48.106;11.546;2023-01-26T02:49:22;23.92;;;12.60;;
27199;SDS011;14714;48.106;11.546;2023-01-26T02:52:07;24.95;;;11.45;;
27199;SDS011;14714;48.106;11.546;2023-01-26T02:54:34;26.42;;;11.82;;
27199;SDS011;14714;48.106;11.546;2023-01-26T02:57:19;25.70;;;12.07;;
27199;SDS011;14714;48.106;11.546;2023-01-26T02:59:46;24.13;;;11.25;;
27199;SDS011;14714;48.106;11.546;2023-01-26T03:02:13;27.27;;;13.48;;
27199;SDS011;14714;48.106;11.546;2023-01-26T03:04:40;29.80;;;13.77;;
27199;SDS011;14714;48.106;11.546;2023-01-26T03:07:07;27.85;;;12.57;;
27199;SDS011;14714;48.106;11.546;2023-01-26T03:09:34;28.70;;;13.23;;
27199;SDS011;14714;48.106;11.546;2023-01-26T03:12:02;26.60;;;12.18;;
27199;SDS011;14714;48.106;11.546;2023-01-26T03:14:29;26.42;;;12.95;;
27199;SDS011;14714;48.106;11.546;2023-01-26T03:16:56;27.10;;;13.05;;
27199;SDS011;14714;48.106;11.546;2023-01-26T03:19:23;29.60;;;13.38;;
27199;SDS011;14714;48.106;11.546;2023-01-26T03:22:08;28.27;;;13.35;;
27199;SDS011;14714;48.106;11.546;2023-01-26T03:24:55;30.77;;;14.57;;
27199;SDS011;14714;48.106;11.546;2023-01-26T03:27:45;29.50;;;13.50;;
27199;SDS011;14714;48.106;11.546;2023-01-26T03:30:13;28.30;;;13.90;;
27199;SDS011;14714;48.106;11.546;2023-01-26T03:32:42;30.15;;;14.07;;
27199;SDS011;14714;48.106;11.546;2023-01-26T03:35:09;27.52;;;13.10;;
27199;SDS011;14714;48.106;11.546;2023-01-26T03:37:43;29.40;;;13.55;;
27199;SDS011;14714;48.106;11.546;2023-01-26T03:40:10;30.92;;;14.00;;
27199;SDS011;14714;48.106;11.546;2023-01-26T03:42:56;29.58;;;13.75;;
27199;SDS011;14714;48.106;11.546;2023-01-26T03:45:42;28.05;;;14.10;;
27199;SDS011;14714;48.106;11.546;2023-01-26T03:48:27;30.75;;;13.80;;
27199;SDS011;14714;48.106;11.546;2023-01-26T03:51:12;31.15;;;14.25;;
27199;SDS011;14714;48.106;11.546;2023-01-26T03:53:58;20.58;;;10.57;;
27199;SDS011;14714;48.106;11.546;2023-01-26T03:56:43;21.08;;;9.98;;
27199;SDS011;14714;48.106;11.546;2023-01-26T03:59:10;19.60;;;10.02;;
27199;SDS011;14714;48.106;11.546;2023-01-26T04:01:41;21.25;;;10.38;;
27199;SDS011;14714;48.106;11.546;2023-01-26T04:04:28;18.75;;;9.18;;
27199;SDS011;14714;48.106;11.546;2023-01-26T04:07:13;17.33;;;8.73;;
27199;SDS011;14714;48.106;11.546;2023-01-26T04:09:59;21.17;;;9.82;;
27199;SDS011;14714;48.106;11.546;2023-01-26T04:12:26;13.52;;;7.82;;
27199;SDS011;14714;48.106;11.546;2023-01-26T04:14:52;14.40;;;7.18;;
27199;SDS011;14714;48.106;11.546;2023-01-26T04:17:38;14.75;;;8.02;;
27199;SDS011;14714;48.106;11.546;2023-01-26T04:20:23;15.68;;;7.47;;
27199;SDS011;14714;48.106;11.546;2023-01-26T04:23:16;12.65;;;6.50;;
27199;SDS011;14714;48.106;11.546;2023-01-26T04:25:43;14.15;;;7.10;;
27199;SDS011;14714;48.106;11.546;2023-01-26T04:28:10;14.40;;;7.40;;
27199;SDS011;14714;48.106;11.546;2023-01-26T04:30:37;16.10;;;8.05;;
27199;SDS011;14714;48.106;11.546;2023-01-26T04:33:04;17.13;;;7.63;;
27199;SDS011;14714;48.106;11.546;2023-01-26T04:35:32;15.40;;;7.82;;
27199;SDS011;14714;48.106;11.546;2023-01-26T04:37:58;17.17;;;8.25;;
27199;SDS011;14714;48.106;11.546;2023-01-26T04:40:25;16.13;;;8.23;;
27199;SDS011;14714;48.106;11.546;2023-01-26T04:42:52;14.05;;;7.20;;
27199;SDS011;14714;48.106;11.546;2023-01-26T04:45:19;13.70;;;7.57;;
27199;SDS011;14714;48.106;11.546;2023-01-26T04:47:45;15.35;;;7.95;;
27199;SDS011;14714;48.106;11.546;2023-01-26T04:50:12;15.90;;;8.15;;
27199;SDS011;14714;48.106;11.546;2023-01-26T04:52:39;15.15;;;8.27;;
27199;SDS011;14714;48.106;11.546;2023-01-26T04:55:06;15.55;;;8.35;;
27199;SDS011;14714;48.106;11.546;2023-01-26T04:57:33;17.05;;;8.75;;
27199;SDS011;14714;48.106;11.546;2023-01-26T05:00:00;16.33;;;8.60;;
27199;SDS011;14714;48.106;11.546;2023-01-26T05:02:27;14.88;;;8.10;;
27199;SDS011;14714;48.106;11.546;2023-01-26T05:04:53;19.73;;;9.38;;
27199;SDS011;14714;48.106;11.546;2023-01-26T05:07:20;18.90;;;8.70;;
27199;SDS011;14714;48.106;11.546;2023-01-26T05:09:47;17.70;;;9.23;;
27199;SDS011;14714;48.106;11.546;2023-01-26T05:12:14;19.98;;;9.60;;
27199;SDS011;14714;48.106;11.546;2023-01-26T05:14:59;17.95;;;8.20;;
27199;SDS011;14714;48.106;11.546;2023-01-26T05:17:25;16.92;;;9.18;;
27199;SDS011;14714;48.106;11.546;2023-01-26T05:19:52;14.85;;;8.65;;
27199;SDS011;14714;48.106;11.546;2023-01-26T05:22:19;17.85;;;8.82;;
27199;SDS011;14714;48.106;11.546;2023-01-26T05:24:46;15.10;;;8.25;;
27199;SDS011;14714;48.106;11.546;2023-01-26T05:27:12;16.10;;;8.38;;
27199;SDS011;14714;48.106;11.546;2023-01-26T05:29:49;16.15;;;8.32;;
27199;SDS011;14714;48.106;11.546;2023-01-26T05:32:16;15.38;;;7.43;;
27199;SDS011;14714;48.106;11.546;2023-01-26T05:34:43;16.15;;;8.60;;
27199;SDS011;14714;48.106;11.546;2023-01-26T05:37:10;16.65;;;7.38;;
27199;SDS011;14714;48.106;11.546;2023-01-26T05:39:40;15.82;;;8.13;;
27199;SDS011;14714;48.106;11.546;2023-01-26T05:42:07;17.38;;;7.88;;
27199;SDS011;14714;48.106;11.546;2023-01-26T05:44:34;17.55;;;8.20;;
27199;SDS011;14714;48.106;11.546;2023-01-26T05:47:00;13.48;;;7.10;;
27199;SDS011;14714;48.106;11.546;2023-01-26T05:49:27;16.45;;;8.60;;
27199;SDS011;14714;48.106;11.546;2023-01-26T05:51:54;15.05;;;7.75;;
27199;SDS011;14714;48.106;11.546;2023-01-26T05:54:21;14.82;;;7.00;;
27199;SDS011;14714;48.106;11.546;2023-01-26T05:56:47;13.80;;;7.60;;
27199;SDS011;14714;48.106;11.546;2023-01-26T05:59:14;16.15;;;7.85;;
27199;SDS011;14714;48.106;11.546;2023-01-26T06:01:41;17.13;;;7.78;;
27199;SDS011;14714;48.106;11.546;2023-01-26T06:04:08;13.55;;;7.38;;
27199;SDS011;14714;48.106;11.546;2023-01-26T06:06:35;17.05;;;7.53;;
27199;SDS011;14714;48.106;11.546;2023-01-26T06:09:01;15.40;;;8.57;;
27199;SDS011;14714;48.106;11.546;2023-01-26T06:11:30;14.40;;;6.85;;
27199;SDS011;14714;48.106;11.546;2023-01-26T06:13:57;13.10;;;7.18;;
27199;SDS011;14714;48.106;11.546;2023-01-26T06:16:24;15.00;;;6.85;;
27199;SDS011;14714;48.106;11.546;2023-01-26T06:18:51;14.23;;;6.95;;
27199;SDS011;14714;48.106;11.546;2023-01-26T06:21:18;13.05;;;7.35;;
27199;SDS011;14714;48.106;11.546;2023-01-26T06:23:44;13.93;;;6.80;;
27199;SDS011;14714;48.106;11.546;2023-01-26T06:26:11;12.88;;;6.80;;
27199;SDS011;14714;48.106;11.546;2023-01-26T06:28:38;9.52;;;5.70;;
27199;SDS011;14714;48.106;11.546;2023-01-26T06:31:05;14.43;;;5.95;;
27199;SDS011;14714;48.106;11.546;2023-01-26T06:33:34;10.43;;;5.78;;
27199;SDS011;14714;48.106;11.546;2023-01-26T06:36:03;14.13;;;5.90;;
27199;SDS011;14714;48.106;11.546;2023-01-26T06:38:31;13.00;;;6.10;;
27199;SDS011;14714;48.106;11.546;2023-01-26T06:40:58;11.57;;;5.60;;
27199;SDS011;14714;48.106;11.546;2023-01-26T06:43:28;10.40;;;5.82;;
27199;SDS011;14714;48.106;11.546;2023-01-26T06:45:56;10.55;;;5.88;;
27199;SDS011;14714;48.106;11.546;2023-01-26T06:48:24;9.77;;;5.80;;
27199;SDS011;14714;48.106;11.546;2023-01-26T06:50:52;11.15;;;6.47;;
27199;SDS011;14714;48.106;11.546;2023-01-26T06:53:31;11.27;;;5.28;;
27199;SDS011;14714;48.106;11.546;2023-01-26T06:55:59;11.10;;;5.25;;
27199;SDS011;14714;48.106;11.546;2023-01-26T06:58:26;8.98;;;5.32;;
27199;SDS011;14714;48.106;11.546;2023-01-26T07:00:53;8.57;;;5.00;;
27199;SDS011;14714;48.106;11.546;2023-01-26T07:03:21;10.63;;;5.53;;
27199;SDS011;14714;48.106;11.546;2023-01-26T07:05:48;10.02;;;5.53;;
27199;SDS011;14714;48.106;11.546;2023-01-26T07:10:49;10.13;;;5.82;;
27199;SDS011;14714;48.106;11.546;2023-01-26T07:13:16;11.43;;;5.45;;
27199;SDS011;14714;48.106;11.546;2023-01-26T07:15:43;10.30;;;5.40;;
27199;SDS011;14714;48.106;11.546;2023-01-26T07:18:09;10.43;;;5.53;;
27199;SDS011;14714;48.106;11.546;2023-01-26T07:20:36;12.25;;;6.03;;
27199;SDS011;14714;48.106;11.546;2023-01-26T07:23:03;10.48;;;5.68;;
27199;SDS011;14714;48.106;11.546;2023-01-26T07:25:30;10.68;;;5.78;;
27199;SDS011;14714;48.106;11.546;2023-01-26T07:27:57;13.50;;;6.55;;
27199;SDS011;14714;48.106;11.546;2023-01-26T07:30:24;11.10;;;6.10;;
27199;SDS011;14714;48.106;11.546;2023-01-26T07:32:51;15.80;;;6.65;;
27199;SDS011;14714;48.106;11.546;2023-01-26T07:35:18;10.57;;;6.00;;
27199;SDS011;14714;48.106;11.546;2023-01-26T07:37:45;11.77;;;5.68;;
27199;SDS011;14714;48.106;11.546;2023-01-26T07:40:11;10.65;;;5.90;;
27199;SDS011;14714;48.106;11.546;2023-01-26T07:42:39;10.35;;;6.10;;
27199;SDS011;14714;48.106;11.546;2023-01-26T07:45:06;13.20;;;6.63;;
27199;SDS011;14714;48.106;11.546;2023-01-26T07:47:33;12.15;;;6.30;;
27199;SDS011;14714;48.106;11.546;2023-01-26T07:50:01;11.93;;;6.32;;
27199;SDS011;14714;48.106;11.546;2023-01-26T07:52:27;12.40;;;6.30;;
27199;SDS011;14714;48.106;11.546;2023-01-26T07:54:54;12.93;;;6.32;;
27199;SDS011;14714;48.106;11.546;2023-01-26T07:57:21;12.23;;;6.30;;
27199;SDS011;14714;48.106;11.546;2023-01-26T07:59:48;10.32;;;5.75;;
27199;SDS011;14714;48.106;11.546;2023-01-26T08:02:14;11.90;;;5.55;;
27199;SDS011;14714;48.106;11.546;2023-01-26T08:04:41;10.98;;;5.90;;
27199;SDS011;14714;48.106;11.546;2023-01-26T08:07:08;12.43;;;6.53;;
27199;SDS011;14714;48.106;11.546;2023-01-26T08:09:35;13.75;;;6.95;;
27199;SDS011;14714;48.106;11.546;2023-01-26T08:12:02;13.65;;;6.70;;
27199;SDS011;14714;48.106;11.546;2023-01-26T08:14:29;14.00;;;6.80;;
27199;SDS011;14714;48.106;11.546;2023-01-26T08:17:11;14.30;;;6.78;;
27199;SDS011;14714;48.106;11.546;2023-01-26T08:19:38;12.32;;;6.57;;
27199;SDS011;14714;48.106;11.546;2023-01-26T08:22:04;12.32;;;6.72;;
27199;SDS011;14714;48.106;11.546;2023-01-26T08:24:31;12.35;;;6.75;;
27199;SDS011;14714;48.106;11.546;2023-01-26T08:26:58;13.27;;;6.95;;
27199;SDS011;14714;48.106;11.546;2023-01-26T08:29:25;14.30;;;6.90;;
27199;SDS011;14714;48.106;11.546;2023-01-26T08:31:52;11.68;;;6.53;;
27199;SDS011;14714;48.106;11.546;2023-01-26T08:34:18;13.43;;;6.93;;
27199;SDS011;14714;48.106;11.546;2023-01-26T08:36:47;13.38;;;6.95;;
27199;SDS011;14714;48.106;11.546;2023-01-26T08:39:14;12.82;;;6.80;;
27199;SDS011;14714;48.106;11.546;2023-01-26T08:41:41;12.48;;;6.75;;
27199;SDS011;14714;48.106;11.546;2023-01-26T08:44:08;12.65;;;7.30;;
27199;SDS011;14714;48.106;11.546;2023-01-26T08:46:35;13.52;;;6.65;;
27199;SDS011;14714;48.106;11.546;2023-01-26T08:49:02;12.35;;;6.88;;
27199;SDS011;14714;48.106;11.546;2023-01-26T08:51:29;15.85;;;7.90;;
27199;SDS011;14714;48.106;11.546;2023-01-26T08:53:56;12.77;;;6.65;;
27199;SDS011;14714;48.106;11.546;2023-01-26T08:56:22;12.63;;;6.78;;
27199;SDS011;14714;48.106;11.546;2023-01-26T08:58:49;15.68;;;7.40;;
27199;SDS011;14714;48.106;11.546;2023-01-26T09:01:16;12.73;;;6.90;;
27199;SDS011;14714;48.106;11.546;2023-01-26T09:03:43;13.18;;;7.03;;
27199;SDS011;14714;48.106;11.546;2023-01-26T09:06:11;14.13;;;7.38;;
27199;SDS011;14714;48.106;11.546;2023-01-26T09:08:39;12.63;;;6.70;;
27199;SDS011;14714;48.106;11.546;2023-01-26T09:11:07;13.68;;;7.28;;
27199;SDS011;14714;48.106;11.546;2023-01-26T09:13:34;13.63;;;7.70;;
27199;SDS011;14714;48.106;11.546;2023-01-26T09:16:03;15.70;;;7.60;;
27199;SDS011;14714;48.106;11.546;2023-01-26T09:18:35;14.02;;;7.53;;
27199;SDS011;14714;48.106;11.546;2023-01-26T09:21:03;16.80;;;8.00;;
27199;SDS011;14714;48.106;11.546;2023-01-26T09:23:31;16.23;;;7.93;;
27199;SDS011;14714;48.106;11.546;2023-01-26T09:25:58;15.77;;;8.07;;
27199;SDS011;14714;48.106;11.546;2023-01-26T09:28:26;14.52;;;8.18;;
27199;SDS011;14714;48.106;11.546;2023-01-26T09:30:52;17.33;;;8.82;;
27199;SDS011;14714;48.106;11.546;2023-01-26T09:33:19;17.50;;;8.88;;
27199;SDS011;14714;48.106;11.546;2023-01-26T09:35:48;14.82;;;8.30;;
27199;SDS011;14714;48.106;11.546;2023-01-26T09:38:15;16.02;;;8.25;;
27199;SDS011;14714;48.106;11.546;2023-01-26T09:43:37;15.30;;;8.35;;
27199;SDS011;14714;48.106;11.546;2023-01-26T09:48:41;19.25;;;9.70;;
27199;SDS011;14714;48.106;11.546;2023-01-26T09:51:24;18.88;;;9.25;;
27199;SDS011;14714;48.106;11.546;2023-01-26T09:54:00;22.67;;;10.77;;
27199;SDS011;14714;48.106;11.546;2023-01-26T09:56:30;20.90;;;10.18;;
27199;SDS011;14714;48.106;11.546;2023-01-26T09:59:04;20.80;;;9.93;;
27199;SDS011;14714;48.106;11.546;2023-01-26T10:01:52;20.60;;;9.98;;
27199;SDS011;14714;48.106;11.546;2023-01-26T10:04:28;19.48;;;9.52;;
27199;SDS011;14714;48.106;11.546;2023-01-26T10:07:07;22.15;;;11.02;;
27199;SDS011;14714;48.106;11.546;2023-01-26T10:09:37;20.55;;;10.40;;
27199;SDS011;14714;48.106;11.546;2023-01-26T10:12:07;26.40;;;12.35;;
27199;SDS011;14714;48.106;11.546;2023-01-26T10:14:50;29.27;;;12.77;;
27199;SDS011;14714;48.106;11.546;2023-01-26T10:19:49;28.83;;;13.68;;
27199;SDS011;14714;48.106;11.546;2023-01-26T10:22:44;29.13;;;13.95;;
27199;SDS011;14714;48.106;11.546;2023-01-26T10:25:20;26.33;;;12.82;;
27199;SDS011;14714;48.106;11.546;2023-01-26T10:28:00;26.02;;;12.75;;
27199;SDS011;14714;48.106;11.546;2023-01-26T10:30:38;29.85;;;14.35;;
27199;SDS011;14714;48.106;11.546;2023-01-26T10:33:21;28.48;;;12.75;;
27199;SDS011;14714;48.106;11.546;2023-01-26T10:35:58;31.08;;;14.32;;
27199;SDS011;14714;48.106;11.546;2023-01-26T10:38:26;29.10;;;13.50;;
27199;SDS011;14714;48.106;11.546;2023-01-26T10:41:15;28.70;;;13.38;;
27199;SDS011;14714;48.106;11.546;2023-01-26T10:43:52;28.90;;;13.18;;
27199;SDS011;14714;48.106;11.546;2023-01-26T10:49:02;28.83;;;14.15;;
27199;SDS011;14714;48.106;11.546;2023-01-26T10:51:43;28.45;;;13.50;;
27199;SDS011;14714;48.106;11.546;2023-01-26T10:54:19;30.48;;;14.20;;
27199;SDS011;14714;48.106;11.546;2023-01-26T10:56:47;26.80;;;12.43;;
27199;SDS011;14714;48.106;11.546;2023-01-26T10:59:57;27.30;;;13.27;;
27199;SDS011;14714;48.106;11.546;2023-01-26T11:04:37;26.70;;;12.82;;
27199;SDS011;14714;48.106;11.546;2023-01-26T11:07:24;27.25;;;13.55;;
27199;SDS011;14714;48.106;11.546;2023-01-26T11:09:53;28.38;;;12.55;;
27199;SDS011;14714;48.106;11.546;2023-01-26T11:12:21;28.48;;;12.07;;
27199;SDS011;14714;48.106;11.546;2023-01-26T11:14:59;25.73;;;12.50;;
27199;SDS011;14714;48.106;11.546;2023-01-26T11:23:21;22.92;;;11.65;;
27199;SDS011;14714;48.106;11.546;2023-01-26T12:00:30;22.23;;;10.32;;
27199;SDS011;14714;48.106;11.546;2023-01-26T12:03:07;22.80;;;10.35;;
27199;SDS011;14714;48.106;11.546;2023-01-26T12:05:46;19.30;;;9.48;;
27199;SDS011;14714;48.106;11.546;2023-01-26T12:10:54;19.70;;;9.60;;
27199;SDS011;14714;48.106;11.546;2023-01-26T12:13:32;23.27;;;8.90;;
27199;SDS011;14714;48.106;11.546;2023-01-26T12:16:07;17.80;;;9.40;;
27199;SDS011;14714;48.106;11.546;2023-01-26T12:18:45;22.25;;;9.77;;
27199;SDS011;14714;48.106;11.546;2023-01-26T12:21:36;27.17;;;9.93;;
27199;SDS011;14714;48.106;11.546;2023-01-26T12:24:07;20.77;;;9.65;;
27199;SDS011;14714;48.106;11.546;2023-01-26T12:27:21;17.88;;;9.68;;
27199;SDS011;14714;48.106;11.546;2023-01-26T12:30:17;22.23;;;9.45;;
27199;SDS011;14714;48.106;11.546;2023-01-26T12:32:50;20.55;;;9.48;;
27199;SDS011;14714;48.106;11.546;2023-01-26T12:35:21;18.65;;;9.00;;
27199;SDS011;14714;48.106;11.546;2023-01-26T12:38:06;17.63;;;8.80;;
27199;SDS011;14714;48.106;11.546;2023-01-26T12:46:30;27.20;;;10.95;;
27199;SDS011;14714;48.106;11.546;2023-01-26T12:49:03;20.92;;;10.20;;
27199;SDS011;14714;48.106;11.546;2023-01-26T12:51:39;19.27;;;8.65;;
27199;SDS011;14714;48.106;11.546;2023-01-26T12:54:14;19.85;;;9.48;;
27199;SDS011;14714;48.106;11.546;2023-01-26T12:56:53;19.90;;;9.27;;
27199;SDS011;14714;48.106;11.546;2023-01-26T12:59:27;18.50;;;10.05;;
27199;SDS011;14714;48.106;11.546;2023-01-26T13:04:43;17.67;;;8.32;;
27199;SDS011;14714;48.106;11.546;2023-01-26T13:07:34;16.95;;;8.80;;
27199;SDS011;14714;48.106;11.546;2023-01-26T13:15:19;15.52;;;8.00;;
27199;SDS011;14714;48.106;11.546;2023-01-26T13:17:49;17.58;;;9.15;;
27199;SDS011;14714;48.106;11.546;2023-01-26T13:23:09;19.50;;;9.52;;
27199;SDS011;14714;48.106;11.546;2023-01-26T13:28:44;20.20;;;9.45;;
27199;SDS011;14714;48.106;11.546;2023-01-26T13:31:14;21.80;;;9.80;;
27199;SDS011;14714;48.106;11.546;2023-01-26T13:33:59;21.65;;;9.80;;
27199;SDS011;14714;48.106;11.546;2023-01-26T13:36:32;22.05;;;10.13;;
27199;SDS011;14714;48.106;11.546;2023-01-26T13:39:09;20.60;;;9.82;;
27199;SDS011;14714;48.106;11.546;2023-01-26T13:41:43;25.23;;;9.93;;
27199;SDS011;14714;48.106;11.546;2023-01-26T13:44:35;19.10;;;8.93;;
27199;SDS011;14714;48.106;11.546;2023-01-26T13:47:10;23.50;;;9.95;;
27199;SDS011;14714;48.106;11.546;2023-01-26T13:49:41;22.75;;;10.57;;
27199;SDS011;14714;48.106;11.546;2023-01-26T13:52:16;19.88;;;9.80;;
27199;SDS011;14714;48.106;11.546;2023-01-26T13:54:45;21.15;;;10.00;;
27199;SDS011;14714;48.106;11.546;2023-01-26T13:57:47;20.48;;;10.25;;
27199;SDS011;14714;48.106;11.546;2023-01-26T14:00:09;18.52;;;9.52;;
27199;SDS011;14714;48.106;11.546;2023-01-26T14:02:39;20.77;;;10.75;;
27199;SDS011;14714;48.106;11.546;2023-01-26T14:05:05;23.17;;;10.20;;
27199;SDS011;14714;48.106;11.546;2023-01-26T14:07:35;19.75;;;9.25;;
27199;SDS011;14714;48.106;11.546;2023-01-26T14:10:07;20.48;;;9.88;;
27199;SDS011;14714;48.106;11.546;2023-01-26T14:12:50;18.98;;;9.07;;
27199;SDS011;14714;48.106;11.546;2023-01-26T14:15:22;21.27;;;9.80;;
27199;SDS011;14714;48.106;11.546;2023-01-26T14:17:56;20.63;;;9.68;;
27199;SDS011;14714;48.106;11.546;2023-01-26T14:20:25;23.20;;;9.30;;
27199;SDS011;14714;48.106;11.546;2023-01-26T14:25:41;21.38;;;10.20;;
27199;SDS011;14714;48.106;11.546;2023-01-26T14:28:15;18.95;;;9.10;;
27199;SDS011;14714;48.106;11.546;2023-01-26T14:30:54;21.00;;;9.60;;
27199;SDS011;14714;48.106;11.546;2023-01-26T14:33:26;20.40;;;8.80;;
27199;SDS011;14714;48.106;11.546;2023-01-26T14:35:55;20.17;;;9.40;;
27199;SDS011;14714;48.106;11.546;2023-01-26T14:38:23;17.42;;;8.63;;
27199;SDS011;14714;48.106;11.546;2023-01-26T14:40:54;16.27;;;8.52;;
27199;SDS011;14714;48.106;11.546;2023-01-26T14:43:23;21.30;;;9.13;;
27199;SDS011;14714;48.106;11.546;2023-01-26T14:45:54;18.48;;;9.02;;
27199;SDS011;14714;48.106;11.546;2023-01-26T14:48:30;19.35;;;9.20;;
27199;SDS011;14714;48.106;11.546;2023-01-26T14:50:59;17.30;;;8.18;;
27199;SDS011;14714;48.106;11.546;2023-01-26T14:53:29;17.03;;;8.37;;
27199;SDS011;14714;48.106;11.546;2023-01-26T14:55:55;20.45;;;8.98;;
27199;SDS011;14714;48.106;11.546;2023-01-26T14:58:27;18.20;;;9.60;;
27199;SDS011;14714;48.106;11.546;2023-01-26T15:00:57;17.88;;;8.85;;
27199;SDS011;14714;48.106;11.546;2023-01-26T15:03:31;17.35;;;8.35;;
27199;SDS011;14714;48.106;11.546;2023-01-26T15:08:40;19.70;;;8.90;;
27199;SDS011;14714;48.106;11.546;2023-01-26T15:11:22;20.20;;;9.05;;
27199;SDS011;14714;48.106;11.546;2023-01-26T15:14:28;17.77;;;8.55;;
27199;SDS011;14714;48.106;11.546;2023-01-26T15:16:56;18.90;;;8.98;;
27199;SDS011;14714;48.106;11.546;2023-01-26T15:19:23;17.73;;;8.43;;
27199;SDS011;14714;48.106;11.546;2023-01-26T15:21:52;20.73;;;9.30;;
27199;SDS011;14714;48.106;11.546;2023-01-26T15:24:19;20.10;;;9.23;;
27199;SDS011;14714;48.106;11.546;2023-01-26T15:26:45;21.77;;;10.07;;
27199;SDS011;14714;48.106;11.546;2023-01-26T15:29:23;21.92;;;10.35;;
27199;SDS011;14714;48.106;11.546;2023-01-26T15:31:53;21.55;;;10.35;;
27199;SDS011;14714;48.106;11.546;2023-01-26T15:34:37;21.90;;;10.68;;
27199;SDS011;14714;48.106;11.546;2023-01-26T15:39:56;20.47;;;9.73;;
27199;SDS011;14714;48.106;11.546;2023-01-26T15:42:24;23.20;;;10.40;;
27199;SDS011;14714;48.106;11.546;2023-01-26T15:44:54;22.58;;;9.80;;
27199;SDS011;14714;48.106;11.546;2023-01-26T15:47:20;22.73;;;10.25;;
27199;SDS011;14714;48.106;11.546;2023-01-26T15:49:47;18.00;;;9.45;;
27199;SDS011;14714;48.106;11.546;2023-01-26T15:52:15;19.52;;;9.98;;
27199;SDS011;14714;48.106;11.546;2023-01-26T15:54:50;22.48;;;10.65;;
27199;SDS011;14714;48.106;11.546;2023-01-26T15:57:18;20.30;;;10.45;;
27199;SDS011;14714;48.106;11.546;2023-01-26T15:59:45;21.98;;;10.05;;
27199;SDS011;14714;48.106;11.546;2023-01-26T16:02:16;24.10;;;10.25;;
27199;SDS011;14714;48.106;11.546;2023-01-26T16:04:44;21.02;;;9.70;;
27199;SDS011;14714;48.106;11.546;2023-01-26T16:07:12;22.48;;;9.80;;
27199;SDS011;14714;48.106;11.546;2023-01-26T16:09:40;21.30;;;10.13;;
27199;SDS011;14714;48.106;11.546;2023-01-26T16:12:12;21.70;;;10.30;;
27199;SDS011;14714;48.106;11.546;2023-01-26T16:14:58;21.67;;;10.05;;